createdAt,value
2018-03-03T00:00:42.121Z,994.64
2018-03-03T00:01:42.097Z,994.64
2018-03-03T00:02:42.109Z,994.66
2018-03-03T00:03:42.199Z,994.64
2018-03-03T00:04:42.036Z,994.65
2018-03-03T00:05:41.929Z,994.66
2018-03-03T00:06:41.872Z,994.72
2018-03-03T00:07:41.866Z,994.67
2018-03-03T00:08:41.828Z,994.67
2018-03-03T00:09:41.783Z,994.64
2018-03-03T00:10:41.767Z,994.63
2018-03-03T00:11:41.736Z,994.66
2018-03-03T00:12:41.687Z,994.65
2018-03-03T00:13:41.641Z,994.61
2018-03-03T00:14:41.615Z,994.61
2018-03-03T00:15:41.576Z,994.62
2018-03-03T00:16:41.527Z,994.65
2018-03-03T00:17:41.520Z,994.65
2018-03-03T00:18:41.476Z,994.65
2018-03-03T00:19:41.431Z,994.65
2018-03-03T00:20:41.430Z,994.64
2018-03-03T00:21:41.342Z,994.62
2018-03-03T00:22:41.335Z,994.62
2018-03-03T00:23:41.305Z,994.55
2018-03-03T00:24:41.246Z,994.51
2018-03-03T00:25:41.238Z,994.52
2018-03-03T00:26:41.226Z,994.51
2018-03-03T00:27:41.162Z,994.54
2018-03-03T00:28:41.113Z,994.50
2018-03-03T00:29:41.146Z,994.51
2018-03-03T00:30:41.054Z,994.57
2018-03-03T00:31:41.009Z,994.51
2018-03-03T00:32:41.000Z,994.52
2018-03-03T00:33:40.973Z,994.60
2018-03-03T00:34:41.438Z,994.58
2018-03-03T00:35:40.834Z,994.56
2018-03-03T00:36:41.038Z,994.56
2018-03-03T00:37:40.909Z,994.58
2018-03-03T00:38:40.815Z,994.56
2018-03-03T00:39:40.725Z,994.58
2018-03-03T00:40:40.689Z,994.57
2018-03-03T00:41:40.668Z,994.56
2018-03-03T00:42:40.630Z,994.61
2018-03-03T00:43:40.630Z,994.62
2018-03-03T00:44:40.548Z,994.62
2018-03-03T00:45:41.412Z,994.58
2018-03-03T00:46:40.483Z,994.62
2018-03-03T00:47:40.488Z,994.61
2018-03-03T00:48:40.388Z,994.54
2018-03-03T00:49:40.353Z,994.59
2018-03-03T00:50:40.338Z,994.57
2018-03-03T00:51:40.292Z,994.51
2018-03-03T00:52:40.252Z,994.53
2018-03-03T00:53:40.225Z,994.48
2018-03-03T00:54:40.181Z,994.49
2018-03-03T00:55:40.189Z,994.47
2018-03-03T00:56:40.103Z,994.46
2018-03-03T00:57:40.093Z,994.48
2018-03-03T00:58:40.080Z,994.45
2018-03-03T00:59:39.994Z,994.45
2018-03-03T01:00:39.969Z,994.41
2018-03-03T01:01:39.978Z,994.42
2018-03-03T01:02:39.890Z,994.41
2018-03-03T01:03:39.862Z,994.40
2018-03-03T01:04:39.827Z,994.38
2018-03-03T01:05:39.800Z,994.43
2018-03-03T01:06:39.753Z,994.45
2018-03-03T01:07:39.728Z,994.41
2018-03-03T01:08:39.666Z,994.40
2018-03-03T01:09:39.641Z,994.38
2018-03-03T01:10:39.596Z,994.37
2018-03-03T01:11:39.577Z,994.38
2018-03-03T01:12:39.607Z,994.35
2018-03-03T01:13:39.492Z,994.36
2018-03-03T01:14:39.506Z,994.35
2018-03-03T01:15:39.444Z,994.36
2018-03-03T01:16:39.410Z,994.40
2018-03-03T01:17:39.365Z,994.40
2018-03-03T01:18:39.307Z,994.38
2018-03-03T01:19:39.308Z,994.37
2018-03-03T01:20:39.245Z,994.42
2018-03-03T01:21:39.226Z,994.37
2018-03-03T01:22:39.168Z,994.35
2018-03-03T01:23:39.180Z,994.33
2018-03-03T01:24:39.140Z,994.32
2018-03-03T01:25:39.074Z,994.33
2018-03-03T01:26:39.078Z,994.33
2018-03-03T01:27:39.033Z,994.31
2018-03-03T01:28:38.965Z,994.29
2018-03-03T01:29:38.919Z,994.30
2018-03-03T01:30:38.881Z,994.29
2018-03-03T01:31:38.858Z,994.26
2018-03-03T01:32:38.826Z,994.28
2018-03-03T01:33:38.788Z,994.27
2018-03-03T01:34:38.751Z,994.30
2018-03-03T01:35:38.722Z,994.31
2018-03-03T01:36:38.682Z,994.34
2018-03-03T01:37:38.632Z,994.31
2018-03-03T01:38:38.621Z,994.33
2018-03-03T01:39:38.638Z,994.36
2018-03-03T01:40:38.631Z,994.36
2018-03-03T01:41:38.568Z,994.39
2018-03-03T01:42:38.478Z,994.40
2018-03-03T01:43:38.436Z,994.38
2018-03-03T01:44:38.362Z,994.41
2018-03-03T01:45:38.352Z,994.36
2018-03-03T01:46:38.353Z,994.35
2018-03-03T01:47:38.284Z,994.37
2018-03-03T01:48:38.228Z,994.39
2018-03-03T01:49:38.215Z,994.35
2018-03-03T01:50:38.186Z,994.35
2018-03-03T01:51:38.130Z,994.35
2018-03-03T01:52:38.098Z,994.36
2018-03-03T01:53:38.045Z,994.40
2018-03-03T01:54:38.023Z,994.36
2018-03-03T01:55:38.007Z,994.39
2018-03-03T01:56:37.939Z,994.33
2018-03-03T01:57:37.931Z,994.37
2018-03-03T01:58:37.874Z,994.36
2018-03-03T01:59:37.847Z,994.40
2018-03-03T02:00:37.809Z,994.37
2018-03-03T02:01:37.762Z,994.33
2018-03-03T02:02:37.756Z,994.35
2018-03-03T02:03:37.692Z,994.30
2018-03-03T02:04:37.683Z,994.30
2018-03-03T02:05:37.642Z,994.28
2018-03-03T02:06:37.590Z,994.26
2018-03-03T02:07:37.570Z,994.25
2018-03-03T02:08:37.517Z,994.24
2018-03-03T02:09:37.511Z,994.23
2018-03-03T02:10:37.468Z,994.24
2018-03-03T02:11:37.441Z,994.23
2018-03-03T02:12:37.388Z,994.26
2018-03-03T02:13:37.329Z,994.26
2018-03-03T02:14:37.288Z,994.25
2018-03-03T02:15:37.275Z,994.24
2018-03-03T02:16:37.230Z,994.21
2018-03-03T02:17:37.223Z,994.23
2018-03-03T02:18:37.171Z,994.21
2018-03-03T02:19:37.123Z,994.21
2018-03-03T02:20:37.083Z,994.21
2018-03-03T02:21:37.054Z,994.24
2018-03-03T02:22:37.042Z,994.23
2018-03-03T02:23:36.985Z,994.22
2018-03-03T02:24:36.932Z,994.17
2018-03-03T02:25:36.898Z,994.14
2018-03-03T02:26:36.871Z,994.15
2018-03-03T02:27:36.823Z,994.17
2018-03-03T02:28:36.803Z,994.16
2018-03-03T02:29:36.756Z,994.08
2018-03-03T02:30:36.722Z,994.13
2018-03-03T02:31:36.683Z,994.06
2018-03-03T02:32:36.695Z,994.10
2018-03-03T02:33:36.606Z,994.09
2018-03-03T02:34:36.562Z,994.07
2018-03-03T02:35:36.567Z,994.08
2018-03-03T02:36:36.523Z,994.11
2018-03-03T02:37:36.466Z,994.12
2018-03-03T02:38:36.446Z,994.08
2018-03-03T02:39:36.377Z,994.09
2018-03-03T02:40:36.390Z,994.10
2018-03-03T02:41:36.318Z,994.03
2018-03-03T02:42:36.282Z,993.98
2018-03-03T02:43:36.248Z,994.02
2018-03-03T02:44:36.202Z,993.96
2018-03-03T02:45:36.186Z,993.94
2018-03-03T02:46:36.126Z,993.95
2018-03-03T02:47:36.107Z,993.97
2018-03-03T02:48:36.115Z,993.93
2018-03-03T02:49:36.042Z,993.93
2018-03-03T02:50:36.023Z,993.93
2018-03-03T02:51:35.946Z,993.97
2018-03-03T02:52:35.984Z,993.97
2018-03-03T02:53:35.878Z,993.89
2018-03-03T02:54:35.855Z,993.90
2018-03-03T02:55:35.830Z,993.90
2018-03-03T02:56:35.759Z,993.88
2018-03-03T02:57:35.763Z,993.87
2018-03-03T02:58:35.696Z,993.87
2018-03-03T02:59:35.676Z,993.86
2018-03-03T03:00:35.632Z,993.84
2018-03-03T03:01:35.603Z,993.83
2018-03-03T03:02:35.542Z,993.80
2018-03-03T03:03:35.516Z,993.78
2018-03-03T03:04:35.514Z,993.73
2018-03-03T03:05:35.449Z,993.71
2018-03-03T03:06:35.429Z,993.67
2018-03-03T03:07:35.412Z,993.71
2018-03-03T03:08:35.344Z,993.69
2018-03-03T03:09:35.315Z,993.73
2018-03-03T03:10:35.265Z,993.73
2018-03-03T03:11:35.229Z,993.70
2018-03-03T03:12:35.207Z,993.70
2018-03-03T03:13:35.176Z,993.70
2018-03-03T03:14:35.132Z,993.73
2018-03-03T03:15:35.107Z,993.76
2018-03-03T03:16:35.105Z,993.73
2018-03-03T03:17:35.013Z,993.74
2018-03-03T03:18:35.000Z,993.70
2018-03-03T03:19:34.952Z,993.72
2018-03-03T03:20:34.922Z,993.68
2018-03-03T03:21:34.908Z,993.64
2018-03-03T03:22:34.839Z,993.68
2018-03-03T03:23:34.799Z,993.65
2018-03-03T03:24:34.761Z,993.62
2018-03-03T03:25:34.749Z,993.60
2018-03-03T03:26:34.729Z,993.61
2018-03-03T03:27:34.664Z,993.60
2018-03-03T03:28:34.650Z,993.58
2018-03-03T03:29:34.568Z,993.61
2018-03-03T03:30:34.560Z,993.56
2018-03-03T03:31:34.548Z,993.58
2018-03-03T03:32:34.465Z,993.61
2018-03-03T03:33:34.465Z,993.54
2018-03-03T03:34:34.391Z,993.57
2018-03-03T03:35:34.404Z,993.63
2018-03-03T03:36:34.353Z,993.59
2018-03-03T03:37:34.298Z,993.59
2018-03-03T03:38:34.275Z,993.61
2018-03-03T03:39:34.221Z,993.62
2018-03-03T03:40:34.200Z,993.60
2018-03-03T03:41:34.146Z,993.60
2018-03-03T03:42:34.974Z,993.60
2018-03-03T03:43:34.067Z,993.62
2018-03-03T03:44:34.047Z,993.53
2018-03-03T03:45:34.018Z,993.55
2018-03-03T03:46:33.975Z,993.54
2018-03-03T03:47:33.950Z,993.53
2018-03-03T03:48:33.891Z,993.50
2018-03-03T03:49:33.860Z,993.49
2018-03-03T03:50:33.836Z,993.43
2018-03-03T03:51:33.819Z,993.44
2018-03-03T03:52:33.755Z,993.46
2018-03-03T03:53:33.736Z,993.46
2018-03-03T03:54:33.691Z,993.43
2018-03-03T03:55:33.646Z,993.43
2018-03-03T03:56:33.602Z,993.43
2018-03-03T03:57:33.577Z,993.43
2018-03-03T03:58:33.535Z,993.40
2018-03-03T03:59:33.498Z,993.47
2018-03-03T04:00:33.487Z,993.44
2018-03-03T04:01:33.437Z,993.42
2018-03-03T04:02:33.431Z,993.46
2018-03-03T04:03:33.369Z,993.45
2018-03-03T04:04:33.326Z,993.46
2018-03-03T04:05:33.279Z,993.42
2018-03-03T04:06:33.276Z,993.40
2018-03-03T04:07:33.217Z,993.43
2018-03-03T04:08:33.206Z,993.42
2018-03-03T04:09:33.148Z,993.40
2018-03-03T04:10:33.121Z,993.36
2018-03-03T04:11:33.109Z,993.38
2018-03-03T04:12:33.046Z,993.38
2018-03-03T04:13:33.001Z,993.33
2018-03-03T04:14:32.973Z,993.30
2018-03-03T04:15:32.914Z,993.33
2018-03-03T04:16:32.888Z,993.29
2018-03-03T04:17:32.852Z,993.29
2018-03-03T04:18:32.825Z,993.27
2018-03-03T04:19:32.815Z,993.26
2018-03-03T04:20:32.741Z,993.26
2018-03-03T04:21:32.738Z,993.25
2018-03-03T04:22:32.677Z,993.21
2018-03-03T04:23:32.641Z,993.22
2018-03-03T04:24:32.606Z,993.21
2018-03-03T04:25:32.576Z,993.21
2018-03-03T04:26:32.566Z,993.19
2018-03-03T04:27:32.504Z,993.19
2018-03-03T04:28:32.485Z,993.21
2018-03-03T04:29:32.430Z,993.13
2018-03-03T04:30:32.402Z,993.19
2018-03-03T04:31:32.394Z,993.20
2018-03-03T04:32:32.322Z,993.18
2018-03-03T04:33:32.270Z,993.18
2018-03-03T04:34:32.273Z,993.14
2018-03-03T04:35:32.234Z,993.18
2018-03-03T04:36:32.185Z,993.08
2018-03-03T04:37:32.145Z,993.12
2018-03-03T04:38:32.114Z,993.11
2018-03-03T04:39:32.076Z,993.08
2018-03-03T04:40:32.040Z,993.09
2018-03-03T04:41:32.012Z,993.06
2018-03-03T04:42:31.953Z,993.13
2018-03-03T04:43:31.908Z,993.04
2018-03-03T04:44:31.878Z,993.05
2018-03-03T04:45:31.860Z,993.01
2018-03-03T04:46:31.847Z,993.02
2018-03-03T04:47:31.781Z,992.94
2018-03-03T04:48:31.726Z,993.00
2018-03-03T04:49:31.705Z,992.95
2018-03-03T04:50:31.691Z,992.91
2018-03-03T04:51:31.623Z,992.94
2018-03-03T04:52:31.608Z,992.88
2018-03-03T04:53:31.544Z,992.84
2018-03-03T04:54:31.536Z,992.87
2018-03-03T04:55:31.524Z,992.84
2018-03-03T04:56:31.444Z,992.83
2018-03-03T04:57:31.433Z,992.79
2018-03-03T04:58:31.420Z,992.86
2018-03-03T04:59:31.351Z,992.80
2018-03-03T05:00:31.311Z,992.74
2018-03-03T05:01:31.270Z,992.72
2018-03-03T05:02:31.275Z,992.70
2018-03-03T05:03:31.210Z,992.69
2018-03-03T05:04:31.184Z,992.71
2018-03-03T05:05:31.163Z,992.68
2018-03-03T05:06:31.103Z,992.71
2018-03-03T05:07:31.074Z,992.65
2018-03-03T05:08:31.038Z,992.66
2018-03-03T05:09:31.013Z,992.65
2018-03-03T05:10:30.988Z,992.64
2018-03-03T05:11:30.916Z,992.71
2018-03-03T05:12:30.904Z,992.66
2018-03-03T05:13:30.934Z,992.63
2018-03-03T05:14:30.851Z,992.70
2018-03-03T05:15:30.776Z,992.72
2018-03-03T05:16:30.748Z,992.72
2018-03-03T05:17:30.731Z,992.71
2018-03-03T05:18:30.669Z,992.72
2018-03-03T05:19:30.655Z,992.68
2018-03-03T05:20:30.590Z,992.70
2018-03-03T05:21:30.576Z,992.63
2018-03-03T05:22:30.514Z,992.68
2018-03-03T05:23:30.525Z,992.63
2018-03-03T05:24:30.448Z,992.65
2018-03-03T05:25:30.427Z,992.66
2018-03-03T05:26:30.408Z,992.65
2018-03-03T05:27:30.342Z,992.63
2018-03-03T05:28:30.321Z,992.63
2018-03-03T05:29:30.282Z,992.65
2018-03-03T05:30:30.247Z,992.67
2018-03-03T05:31:30.207Z,992.67
2018-03-03T05:32:30.202Z,992.62
2018-03-03T05:33:30.123Z,992.65
2018-03-03T05:34:30.081Z,992.62
2018-03-03T05:35:30.067Z,992.62
2018-03-03T05:36:31.644Z,992.62
2018-03-03T05:37:31.555Z,992.70
2018-03-03T05:38:29.962Z,992.62
2018-03-03T05:39:29.920Z,992.63
2018-03-03T05:40:29.866Z,992.65
2018-03-03T05:41:29.846Z,992.61
2018-03-03T05:42:29.818Z,992.59
2018-03-03T05:43:29.789Z,992.58
2018-03-03T05:44:29.754Z,992.55
2018-03-03T05:45:29.717Z,992.57
2018-03-03T05:46:29.673Z,992.58
2018-03-03T05:47:29.638Z,992.58
2018-03-03T05:48:29.597Z,992.58
2018-03-03T05:49:29.592Z,992.58
2018-03-03T05:50:29.511Z,992.56
2018-03-03T05:51:30.468Z,992.55
2018-03-03T05:52:29.433Z,992.55
2018-03-03T05:53:29.414Z,992.56
2018-03-03T05:54:29.383Z,992.49
2018-03-03T05:55:29.365Z,992.50
2018-03-03T05:56:29.330Z,992.51
2018-03-03T05:57:29.285Z,992.55
2018-03-03T05:58:29.231Z,992.47
2018-03-03T05:59:29.200Z,992.48
2018-03-03T06:00:29.160Z,992.44
2018-03-03T06:01:29.130Z,992.45
2018-03-03T06:02:29.164Z,992.46
2018-03-03T06:03:29.065Z,992.49
2018-03-03T06:04:29.037Z,992.49
2018-03-03T06:05:28.974Z,992.51
2018-03-03T06:06:28.937Z,992.53
2018-03-03T06:07:28.916Z,992.48
2018-03-03T06:08:28.875Z,992.48
2018-03-03T06:09:28.854Z,992.56
2018-03-03T06:10:28.811Z,992.55
2018-03-03T06:11:28.796Z,992.55
2018-03-03T06:12:28.741Z,992.57
2018-03-03T06:13:28.718Z,992.56
2018-03-03T06:14:28.682Z,992.53
2018-03-03T06:15:28.647Z,992.54
2018-03-03T06:16:28.574Z,992.57
2018-03-03T06:17:28.564Z,992.56
2018-03-03T06:18:28.517Z,992.56
2018-03-03T06:19:28.547Z,992.58
2018-03-03T06:20:28.480Z,992.52
2018-03-03T06:21:28.428Z,992.51
2018-03-03T06:22:28.378Z,992.54
2018-03-03T06:23:28.321Z,992.52
2018-03-03T06:24:28.295Z,992.57
2018-03-03T06:25:28.322Z,992.61
2018-03-03T06:26:28.220Z,992.53
2018-03-03T06:27:29.818Z,992.60
2018-03-03T06:28:29.540Z,992.53
2018-03-03T06:29:28.130Z,992.58
2018-03-03T06:30:28.129Z,992.55
2018-03-03T06:31:28.056Z,992.56
2018-03-03T06:32:28.031Z,992.61
2018-03-03T06:33:28.001Z,992.57
2018-03-03T06:34:27.947Z,992.60
2018-03-03T06:35:27.912Z,992.61
2018-03-03T06:36:27.871Z,992.65
2018-03-03T06:37:27.857Z,992.58
2018-03-03T06:38:27.791Z,992.58
2018-03-03T06:39:27.760Z,992.58
2018-03-03T06:40:27.734Z,992.63
2018-03-03T06:41:27.718Z,992.58
2018-03-03T06:42:27.691Z,992.61
2018-03-03T06:43:27.625Z,992.63
2018-03-03T06:44:27.599Z,992.64
2018-03-03T06:45:27.545Z,992.63
2018-03-03T06:46:27.512Z,992.60
2018-03-03T06:47:27.462Z,992.51
2018-03-03T06:48:27.460Z,992.60
2018-03-03T06:49:27.396Z,992.61
2018-03-03T06:50:27.388Z,992.60
2018-03-03T06:51:27.338Z,992.57
2018-03-03T06:52:27.277Z,992.57
2018-03-03T06:53:27.266Z,992.59
2018-03-03T06:54:27.257Z,992.62
2018-03-03T06:55:27.169Z,992.60
2018-03-03T06:56:27.265Z,992.61
2018-03-03T06:57:27.102Z,992.60
2018-03-03T06:58:27.095Z,992.68
2018-03-03T06:59:27.072Z,992.66
2018-03-03T07:00:27.012Z,992.62
2018-03-03T07:01:26.986Z,992.67
2018-03-03T07:02:26.936Z,992.64
2018-03-03T07:03:26.917Z,992.64
2018-03-03T07:04:26.895Z,992.60
2018-03-03T07:05:26.832Z,992.62
2018-03-03T07:06:26.774Z,992.63
2018-03-03T07:07:26.753Z,992.66
2018-03-03T07:08:26.738Z,992.69
2018-03-03T07:09:26.668Z,992.66
2018-03-03T07:10:26.666Z,992.70
2018-03-03T07:11:26.595Z,992.70
2018-03-03T07:12:26.566Z,992.65
2018-03-03T07:13:26.558Z,992.63
2018-03-03T07:14:26.488Z,992.66
2018-03-03T07:15:26.485Z,992.67
2018-03-03T07:16:26.406Z,992.68
2018-03-03T07:17:26.405Z,992.65
2018-03-03T07:18:26.374Z,992.61
2018-03-03T07:19:26.319Z,992.65
2018-03-03T07:20:26.302Z,992.61
2018-03-03T07:21:26.235Z,992.71
2018-03-03T07:22:26.254Z,992.69
2018-03-03T07:23:26.196Z,992.68
2018-03-03T07:24:26.136Z,992.72
2018-03-03T07:25:26.132Z,992.72
2018-03-03T07:26:26.049Z,992.63
2018-03-03T07:27:26.040Z,992.67
2018-03-03T07:28:26.078Z,992.70
2018-03-03T07:29:26.075Z,992.69
2018-03-03T07:30:25.906Z,992.70
2018-03-03T07:31:25.901Z,992.71
2018-03-03T07:32:25.858Z,992.74
2018-03-03T07:33:25.884Z,992.75
2018-03-03T07:34:25.790Z,992.67
2018-03-03T07:35:25.808Z,992.71
2018-03-03T07:36:25.729Z,992.73
2018-03-03T07:37:25.690Z,992.71
2018-03-03T07:38:25.623Z,992.71
2018-03-03T07:39:25.665Z,992.69
2018-03-03T07:40:25.559Z,992.67
2018-03-03T07:41:25.523Z,992.71
2018-03-03T07:42:25.510Z,992.64
2018-03-03T07:43:25.458Z,992.73
2018-03-03T07:44:25.481Z,992.71
2018-03-03T07:45:25.379Z,992.67
2018-03-03T07:46:25.376Z,992.66
2018-03-03T07:47:25.298Z,992.69
2018-03-03T07:48:25.264Z,992.66
2018-03-03T07:49:25.269Z,992.70
2018-03-03T07:50:25.218Z,992.79
2018-03-03T07:51:25.349Z,992.71
2018-03-03T07:52:25.120Z,992.80
2018-03-03T07:53:25.104Z,992.79
2018-03-03T07:54:25.093Z,992.81
2018-03-03T07:55:25.056Z,992.84
2018-03-03T07:56:25.013Z,992.81
2018-03-03T07:57:24.995Z,992.83
2018-03-03T07:58:24.932Z,992.78
2018-03-03T07:59:24.933Z,992.82
2018-03-03T08:00:24.868Z,992.85
2018-03-03T08:01:24.966Z,992.89
2018-03-03T08:02:24.761Z,992.89
2018-03-03T08:03:24.748Z,992.92
2018-03-03T08:04:24.745Z,992.93
2018-03-03T08:05:24.667Z,992.89
2018-03-03T08:06:24.661Z,992.92
2018-03-03T08:07:24.600Z,992.88
2018-03-03T08:08:24.599Z,992.89
2018-03-03T08:09:24.574Z,992.90
2018-03-03T08:10:24.488Z,992.87
2018-03-03T08:11:24.505Z,992.85
2018-03-03T08:12:24.422Z,992.85
2018-03-03T08:13:24.392Z,992.87
2018-03-03T08:14:24.347Z,992.86
2018-03-03T08:15:24.328Z,992.83
2018-03-03T08:16:24.318Z,992.83
2018-03-03T08:17:24.251Z,992.81
2018-03-03T08:18:24.206Z,992.84
2018-03-03T08:19:24.159Z,992.84
2018-03-03T08:20:24.188Z,992.74
2018-03-03T08:21:24.135Z,992.83
2018-03-03T08:22:24.054Z,992.81
2018-03-03T08:23:24.022Z,992.80
2018-03-03T08:24:23.999Z,992.81
2018-03-03T08:25:23.970Z,992.79
2018-03-03T08:26:24.053Z,992.79
2018-03-03T08:27:23.877Z,992.82
2018-03-03T08:28:23.866Z,992.78
2018-03-03T08:29:23.797Z,992.83
2018-03-03T08:30:23.778Z,992.80
2018-03-03T08:31:23.734Z,992.85
2018-03-03T08:32:23.703Z,992.87
2018-03-03T08:33:23.675Z,992.88
2018-03-03T08:34:23.705Z,992.80
2018-03-03T08:35:23.577Z,992.82
2018-03-03T08:36:23.579Z,992.79
2018-03-03T08:37:23.518Z,992.82
2018-03-03T08:38:23.534Z,992.84
2018-03-03T08:39:23.455Z,992.80
2018-03-03T08:40:23.463Z,992.78
2018-03-03T08:41:23.456Z,992.82
2018-03-03T08:42:23.364Z,992.79
2018-03-03T08:43:23.385Z,992.80
2018-03-03T08:44:23.382Z,992.83
2018-03-03T08:45:23.293Z,992.81
2018-03-03T08:46:23.232Z,992.87
2018-03-03T08:47:23.210Z,992.83
2018-03-03T08:48:23.176Z,992.89
2018-03-03T08:49:23.118Z,992.84
2018-03-03T08:50:23.108Z,992.86
2018-03-03T08:51:23.062Z,992.88
2018-03-03T08:52:23.052Z,992.88
2018-03-03T08:53:23.026Z,992.89
2018-03-03T08:54:22.937Z,992.91
2018-03-03T08:55:22.945Z,992.89
2018-03-03T08:56:22.925Z,992.86
2018-03-03T08:57:22.853Z,992.86
2018-03-03T08:58:22.786Z,992.82
2018-03-03T08:59:22.748Z,992.81
2018-03-03T09:00:22.755Z,992.79
2018-03-03T09:01:22.785Z,992.83
2018-03-03T09:02:22.752Z,992.84
2018-03-03T09:03:22.711Z,992.78
2018-03-03T09:04:22.600Z,992.85
2018-03-03T09:05:22.924Z,992.83
2018-03-03T09:06:22.527Z,992.87
2018-03-03T09:07:22.478Z,992.90
2018-03-03T09:08:22.435Z,992.85
2018-03-03T09:09:22.457Z,992.86
2018-03-03T09:10:22.391Z,992.80
2018-03-03T09:11:22.335Z,992.83
2018-03-03T09:12:22.357Z,992.85
2018-03-03T09:13:22.345Z,992.84
2018-03-03T09:14:22.278Z,992.88
2018-03-03T09:15:22.439Z,992.90
2018-03-03T09:16:22.368Z,992.87
2018-03-03T09:17:22.167Z,992.88
2018-03-03T09:18:23.030Z,992.88
2018-03-03T09:19:22.187Z,992.82
2018-03-03T09:20:22.156Z,992.86
2018-03-03T09:21:22.100Z,992.86
2018-03-03T09:22:21.946Z,992.80
2018-03-03T09:23:21.929Z,992.79
2018-03-03T09:24:21.874Z,992.82
2018-03-03T09:25:21.848Z,992.85
2018-03-03T09:26:21.816Z,992.85
2018-03-03T09:27:21.811Z,992.85
2018-03-03T09:28:21.744Z,992.80
2018-03-03T09:29:21.740Z,992.84
2018-03-03T09:30:21.670Z,992.87
2018-03-03T09:31:21.676Z,992.81
2018-03-03T09:32:21.591Z,992.83
2018-03-03T09:33:21.573Z,992.85
2018-03-03T09:34:21.609Z,992.82
2018-03-03T09:35:21.544Z,992.84
2018-03-03T09:36:21.838Z,992.86
2018-03-03T09:37:21.441Z,992.93
2018-03-03T09:38:21.397Z,992.93
2018-03-03T09:39:21.501Z,993.01
2018-03-03T09:40:21.349Z,992.99
2018-03-03T09:41:21.311Z,992.91
2018-03-03T09:42:21.282Z,993.00
2018-03-03T09:43:21.232Z,992.99
2018-03-03T09:44:21.214Z,992.99
2018-03-03T09:45:21.156Z,992.98
2018-03-03T09:46:21.318Z,992.93
2018-03-03T09:47:21.111Z,992.97
2018-03-03T09:48:21.062Z,992.89
2018-03-03T09:49:21.030Z,992.91
2018-03-03T09:50:21.076Z,992.90
2018-03-03T09:51:21.010Z,992.92
2018-03-03T09:52:20.958Z,992.90
2018-03-03T09:53:20.882Z,992.87
2018-03-03T09:54:20.884Z,992.98
2018-03-03T09:55:20.839Z,992.95
2018-03-03T09:56:21.661Z,992.97
2018-03-03T09:57:20.812Z,992.96
2018-03-03T09:58:20.766Z,992.94
2018-03-03T09:59:21.006Z,992.95
2018-03-03T10:00:20.644Z,992.98
2018-03-03T10:01:20.622Z,992.93
2018-03-03T10:02:20.590Z,992.96
2018-03-03T10:03:20.542Z,992.97
2018-03-03T10:04:20.515Z,993.04
2018-03-03T10:05:20.474Z,993.05
2018-03-03T10:06:20.530Z,992.98
2018-03-03T10:07:20.475Z,993.01
2018-03-03T10:08:20.380Z,993.01
2018-03-03T10:09:20.396Z,993.05
2018-03-03T10:10:20.382Z,993.06
2018-03-03T10:11:20.322Z,993.07
2018-03-03T10:12:20.453Z,993.09
2018-03-03T10:13:20.366Z,993.06
2018-03-03T10:14:20.229Z,993.08
2018-03-03T10:15:20.112Z,993.09
2018-03-03T10:16:20.161Z,993.07
2018-03-03T10:17:20.089Z,993.04
2018-03-03T10:18:20.038Z,992.99
2018-03-03T10:19:19.984Z,993.06
2018-03-03T10:20:20.037Z,993.10
2018-03-03T10:21:19.945Z,993.02
2018-03-03T10:22:19.936Z,993.05
2018-03-03T10:23:19.917Z,993.02
2018-03-03T10:24:19.859Z,993.01
2018-03-03T10:25:19.886Z,992.96
2018-03-03T10:26:19.772Z,993.08
2018-03-03T10:27:19.720Z,993.06
2018-03-03T10:28:19.722Z,993.07
2018-03-03T10:29:19.749Z,993.04
2018-03-03T10:30:19.626Z,993.05
2018-03-03T10:31:19.597Z,993.11
2018-03-03T10:32:19.561Z,993.10
2018-03-03T10:33:19.557Z,993.05
2018-03-03T10:34:19.545Z,993.09
2018-03-03T10:35:19.434Z,993.08
2018-03-03T10:36:19.437Z,993.04
2018-03-03T10:37:19.394Z,993.00
2018-03-03T10:38:19.350Z,993.07
2018-03-03T10:39:19.334Z,993.06
2018-03-03T10:40:19.288Z,993.09
2018-03-03T10:41:19.271Z,993.10
2018-03-03T10:42:19.203Z,993.13
2018-03-03T10:43:19.180Z,993.09
2018-03-03T10:44:19.181Z,993.15
2018-03-03T10:45:19.134Z,993.17
2018-03-03T10:46:19.084Z,993.17
2018-03-03T10:47:19.049Z,993.15
2018-03-03T10:48:19.010Z,993.13
2018-03-03T10:49:18.993Z,993.22
2018-03-03T10:50:18.961Z,993.16
2018-03-03T10:51:18.913Z,993.22
2018-03-03T10:52:18.881Z,993.21
2018-03-03T10:53:18.884Z,993.26
2018-03-03T10:54:18.801Z,993.25
2018-03-03T10:55:18.797Z,993.17
2018-03-03T10:56:18.943Z,993.20
2018-03-03T10:57:18.721Z,993.27
2018-03-03T10:58:18.681Z,993.25
2018-03-03T10:59:18.721Z,993.24
2018-03-03T11:00:18.838Z,993.22
2018-03-03T11:01:18.675Z,993.28
2018-03-03T11:02:18.630Z,993.26
2018-03-03T11:03:18.604Z,993.24
2018-03-03T11:04:18.527Z,993.23
2018-03-03T11:05:18.541Z,993.18
2018-03-03T11:06:18.454Z,993.25
2018-03-03T11:07:18.402Z,993.23
2018-03-03T11:08:18.344Z,993.22
2018-03-03T11:09:18.415Z,993.20
2018-03-03T11:10:18.297Z,993.23
2018-03-03T11:11:18.267Z,993.19
2018-03-03T11:12:18.329Z,993.20
2018-03-03T11:13:18.189Z,993.22
2018-03-03T11:14:18.151Z,993.24
2018-03-03T11:15:18.122Z,993.22
2018-03-03T11:16:18.106Z,993.28
2018-03-03T11:17:18.198Z,993.23
2018-03-03T11:18:18.036Z,993.29
2018-03-03T11:19:18.033Z,993.30
2018-03-03T11:20:17.999Z,993.32
2018-03-03T11:21:17.932Z,993.32
2018-03-03T11:22:17.922Z,993.34
2018-03-03T11:23:17.872Z,993.28
2018-03-03T11:24:17.879Z,993.29
2018-03-03T11:25:17.939Z,993.23
2018-03-03T11:26:17.781Z,993.26
2018-03-03T11:27:17.875Z,993.28
2018-03-03T11:28:17.702Z,993.21
2018-03-03T11:29:17.686Z,993.20
2018-03-03T11:30:17.615Z,993.21
2018-03-03T11:31:17.609Z,993.18
2018-03-03T11:32:17.569Z,993.21
2018-03-03T11:33:17.534Z,993.22
2018-03-03T11:34:17.551Z,993.21
2018-03-03T11:35:17.496Z,993.18
2018-03-03T11:36:17.501Z,993.16
2018-03-03T11:37:17.510Z,993.15
2018-03-03T11:38:17.374Z,993.16
2018-03-03T11:39:17.374Z,993.16
2018-03-03T11:40:17.340Z,993.20
2018-03-03T11:41:17.300Z,993.17
2018-03-03T11:42:17.238Z,993.15
2018-03-03T11:43:17.205Z,993.15
2018-03-03T11:44:17.158Z,993.09
2018-03-03T11:45:17.133Z,993.11
2018-03-03T11:46:17.145Z,993.16
2018-03-03T11:47:17.087Z,993.13
2018-03-03T11:48:17.051Z,993.08
2018-03-03T11:49:17.021Z,993.09
2018-03-03T11:50:16.976Z,993.09
2018-03-03T11:51:17.131Z,993.10
2018-03-03T11:52:16.910Z,993.10
2018-03-03T11:53:16.892Z,993.09
2018-03-03T11:54:16.832Z,993.11
2018-03-03T11:55:16.824Z,993.11
2018-03-03T11:56:16.825Z,993.14
2018-03-03T11:57:16.746Z,993.10
2018-03-03T11:58:16.737Z,993.07
2018-03-03T11:59:16.669Z,993.10
2018-03-03T12:00:16.689Z,993.14
2018-03-03T12:01:16.723Z,993.09
2018-03-03T12:02:16.574Z,993.16
2018-03-03T12:03:16.569Z,993.12
2018-03-03T12:04:16.603Z,993.09
2018-03-03T12:05:16.514Z,993.16
2018-03-03T12:06:16.494Z,993.19
2018-03-03T12:07:16.620Z,993.17
2018-03-03T12:08:16.423Z,993.17
2018-03-03T12:09:16.422Z,993.11
2018-03-03T12:10:17.010Z,993.10
2018-03-03T12:11:16.308Z,993.10
2018-03-03T12:12:16.269Z,993.05
2018-03-03T12:13:16.233Z,993.14
2018-03-03T12:14:16.250Z,993.07
2018-03-03T12:15:16.167Z,993.10
2018-03-03T12:16:16.141Z,993.12
2018-03-03T12:17:16.129Z,993.13
2018-03-03T12:18:16.167Z,993.12
2018-03-03T12:19:16.052Z,993.10
2018-03-03T12:20:16.016Z,993.11
2018-03-03T12:21:15.973Z,993.11
2018-03-03T12:22:15.937Z,993.09
2018-03-03T12:23:15.897Z,993.10
2018-03-03T12:24:15.910Z,993.07
2018-03-03T12:25:15.879Z,993.11
2018-03-03T12:26:15.817Z,993.10
2018-03-03T12:27:15.810Z,993.05
2018-03-03T12:28:15.752Z,993.08